createdAt,value
2023-02-11T00:00:23.983Z,48.83
2023-02-11T00:06:54.930Z,43.60
2023-02-11T00:10:11.959Z,44.60
2023-02-11T00:13:13.932Z,42.27
2023-02-11T00:16:30.038Z,47.40
2023-02-11T00:19:45.004Z,51.20
2023-02-11T00:22:53.646Z,44.63
2023-02-11T00:26:11.981Z,49.23
2023-02-11T00:29:14.950Z,47.30
2023-02-11T00:32:30.181Z,51.58
2023-02-11T00:35:39.068Z,44.38
2023-02-11T00:38:49.196Z,42.17
2023-02-11T00:42:04.984Z,45.23
2023-02-11T00:45:16.326Z,47.80
2023-02-11T00:48:25.122Z,44.45
2023-02-11T00:51:40.009Z,47.85
2023-02-11T00:54:42.429Z,45.60
2023-02-11T00:57:57.931Z,39.43
2023-02-11T01:01:00.153Z,43.53
2023-02-11T01:04:15.018Z,41.33
2023-02-11T01:07:16.939Z,42.22
2023-02-11T01:10:32.008Z,46.35
2023-02-11T01:13:41.950Z,41.80
2023-02-11T01:16:57.017Z,44.77
2023-02-11T01:20:08.749Z,46.75
2023-02-11T01:23:23.992Z,42.67
2023-02-11T01:26:33.059Z,46.13
2023-02-11T01:29:48.010Z,45.43
2023-02-11T01:32:57.964Z,45.93
2023-02-11T01:36:08.254Z,39.75
2023-02-11T01:39:20.205Z,46.08
2023-02-11T01:42:37.998Z,40.95
2023-02-11T01:46:02.912Z,46.37
2023-02-11T01:49:16.002Z,46.80
2023-02-11T01:52:44.803Z,46.47
2023-02-11T01:55:55.514Z,43.20
2023-02-11T01:59:12.940Z,44.38
2023-02-11T02:02:28.948Z,42.17
2023-02-11T02:05:45.998Z,45.67
2023-02-11T02:09:07.949Z,45.28
2023-02-11T02:12:16.901Z,43.70
2023-02-11T02:15:29.468Z,43.35
2023-02-11T02:18:54.912Z,42.50
2023-02-11T02:22:36.994Z,41.77
2023-02-11T02:26:13.345Z,40.88
2023-02-11T02:29:38.984Z,52.03
2023-02-11T02:33:22.502Z,53.47
2023-02-11T02:36:42.565Z,46.97
2023-02-11T02:39:56.964Z,37.50
2023-02-11T02:43:07.817Z,36.30
2023-02-11T02:46:29.124Z,44.17
2023-02-11T02:49:43.921Z,47.42
2023-02-11T02:53:13.213Z,41.17
2023-02-11T02:56:44.060Z,41.95
2023-02-11T03:00:16.968Z,40.92
2023-02-11T03:03:41.256Z,40.85
2023-02-11T03:07:07.006Z,44.65
2023-02-11T03:10:22.990Z,44.77
2023-02-11T03:13:35.155Z,48.25
2023-02-11T03:16:51.973Z,45.10
2023-02-11T03:20:03.442Z,53.10
2023-02-11T03:23:25.975Z,46.65
2023-02-11T03:26:38.057Z,53.67
2023-02-11T03:30:07.947Z,44.78
2023-02-11T03:33:30.038Z,53.55
2023-02-11T03:36:45.349Z,46.58
2023-02-11T03:40:06.986Z,48.35
2023-02-11T03:43:20.938Z,43.73
2023-02-11T03:46:41.080Z,44.63
2023-02-11T03:49:52.972Z,44.40
2023-02-11T03:53:03.745Z,47.17
2023-02-11T03:56:16.063Z,68.12
2023-02-11T03:59:25.278Z,52.20
2023-02-11T04:02:38.983Z,43.33
2023-02-11T04:05:53.999Z,46.92
2023-02-11T04:08:56.007Z,48.70
2023-02-11T04:12:12.082Z,45.92
2023-02-11T04:15:14.217Z,38.83
2023-02-11T04:18:29.212Z,44.30
2023-02-11T04:21:37.324Z,42.25
2023-02-11T04:24:51.992Z,41.85
2023-02-11T04:28:07.040Z,42.67
2023-02-11T04:31:09.137Z,42.00
2023-02-11T04:34:24.978Z,46.13
2023-02-11T04:37:33.955Z,46.13
2023-02-11T04:40:49.002Z,39.97
2023-02-11T04:43:58.036Z,45.22
2023-02-11T04:47:06.786Z,39.83
2023-02-11T04:50:16.009Z,47.60
2023-02-11T04:53:31.005Z,48.72
2023-02-11T04:56:46.168Z,47.13
2023-02-11T04:59:55.599Z,50.08
2023-02-11T05:03:04.038Z,45.30
2023-02-11T05:06:20.160Z,49.30
2023-02-11T05:09:22.559Z,48.60
2023-02-11T05:12:36.980Z,53.80
2023-02-11T05:15:38.818Z,49.03
2023-02-11T05:18:54.170Z,47.97
2023-02-11T05:22:03.669Z,40.30
2023-02-11T05:25:19.046Z,52.03
2023-02-11T05:28:27.165Z,52.10
2023-02-11T05:31:42.052Z,50.75
2023-02-11T05:34:50.060Z,51.03
2023-02-11T05:37:58.718Z,51.55
2023-02-11T05:41:08.035Z,55.28
2023-02-11T05:44:23.044Z,55.28
2023-02-11T05:47:31.154Z,58.17
2023-02-11T05:50:46.054Z,54.73
2023-02-11T05:53:48.084Z,60.42
2023-02-11T05:57:03.096Z,59.42
2023-02-11T06:00:13.006Z,63.85
2023-02-11T06:03:28.270Z,63.35
2023-02-11T06:06:37.186Z,60.60
2023-02-11T06:09:52.009Z,56.03
2023-02-11T06:12:54.020Z,58.30
2023-02-11T06:16:10.243Z,61.50
2023-02-11T06:19:19.999Z,62.05
2023-02-11T06:22:42.053Z,62.80
2023-02-11T06:25:51.374Z,59.20
2023-02-11T06:29:00.652Z,60.90
2023-02-11T06:32:23.316Z,61.25
2023-02-11T06:35:39.486Z,60.22
2023-02-11T06:38:55.024Z,63.47
2023-02-11T06:41:57.108Z,58.15
2023-02-11T06:45:13.456Z,59.75
2023-02-11T06:48:22.057Z,53.22
2023-02-11T06:51:31.015Z,62.83
2023-02-11T06:54:40.082Z,63.07
2023-02-11T06:57:48.782Z,57.15
2023-02-11T07:00:57.083Z,60.80
2023-02-11T07:04:12.043Z,52.28
2023-02-11T07:07:14.006Z,56.03
2023-02-11T07:10:29.085Z,60.03
2023-02-11T07:13:37.044Z,55.42
2023-02-11T07:16:53.078Z,58.35
2023-02-11T07:20:02.036Z,56.15
2023-02-11T07:23:11.027Z,55.25
2023-02-11T07:26:30.115Z,61.13
2023-02-11T07:29:39.075Z,52.22
2023-02-11T07:32:56.084Z,58.40
2023-02-11T07:36:01.023Z,54.70
2023-02-11T07:39:16.303Z,58.47
2023-02-11T07:42:18.291Z,70.23
2023-02-11T07:45:33.083Z,59.03
2023-02-11T07:48:48.073Z,55.20
2023-02-11T07:51:49.979Z,53.60
2023-02-11T07:55:05.148Z,50.60
2023-02-11T07:58:20.132Z,53.13
2023-02-11T08:01:27.714Z,44.60
2023-02-11T08:04:43.183Z,53.78
2023-02-11T08:07:45.416Z,50.10
2023-02-11T08:11:01.064Z,58.05
2023-02-11T08:14:29.401Z,44.40
2023-02-11T08:17:45.094Z,47.57
2023-02-11T08:20:54.047Z,49.30
2023-02-11T08:24:09.063Z,41.10
2023-02-11T08:27:17.047Z,43.03
2023-02-11T08:30:27.768Z,41.50
2023-02-11T08:33:43.569Z,41.17
2023-02-11T08:37:09.289Z,37.60
2023-02-11T08:40:11.524Z,39.58
2023-02-11T08:43:26.153Z,41.22
2023-02-11T08:46:28.371Z,43.10
2023-02-11T08:49:43.075Z,35.50
2023-02-11T08:52:52.941Z,40.88
2023-02-11T08:56:08.117Z,37.72
2023-02-11T08:59:27.105Z,38.05
2023-02-11T09:02:29.230Z,38.13
2023-02-11T09:05:49.449Z,35.97
2023-02-11T09:08:54.321Z,37.50
2023-02-11T09:12:12.374Z,36.33
2023-02-11T09:15:14.301Z,40.85
2023-02-11T09:18:48.480Z,39.03
2023-02-11T09:22:01.841Z,39.83
2023-02-11T09:25:18.117Z,40.30
2023-02-11T09:28:26.134Z,40.22
2023-02-11T09:31:52.785Z,45.63
2023-02-11T09:35:10.095Z,40.43
2023-02-11T09:38:18.132Z,42.97
2023-02-11T09:41:51.012Z,45.15
2023-02-11T09:45:00.128Z,45.35
2023-02-11T09:48:21.085Z,46.47
2023-02-11T09:51:51.107Z,47.10
2023-02-11T09:55:11.098Z,40.90
2023-02-11T09:58:25.779Z,43.87
2023-02-11T10:02:05.127Z,50.17
2023-02-11T10:05:40.126Z,48.87
2023-02-11T10:09:14.189Z,49.33
2023-02-11T10:12:49.180Z,51.17
2023-02-11T10:16:23.490Z,41.80
2023-02-11T10:19:49.122Z,43.17
2023-02-11T10:23:01.824Z,38.13
2023-02-11T10:26:19.259Z,43.07
2023-02-11T10:29:41.373Z,41.00
2023-02-11T10:33:06.125Z,38.08
2023-02-11T10:36:24.203Z,42.72
2023-02-11T10:39:33.496Z,42.55
2023-02-11T10:42:43.142Z,35.33
2023-02-11T10:45:53.549Z,44.43
2023-02-11T10:49:08.165Z,39.97
2023-02-11T10:52:31.121Z,39.63
2023-02-11T10:55:33.086Z,42.03
2023-02-11T10:58:53.122Z,42.20
2023-02-11T11:02:06.166Z,38.83
2023-02-11T11:05:19.517Z,42.15
2023-02-11T11:08:28.183Z,41.83
2023-02-11T11:11:52.189Z,37.80
2023-02-11T11:15:20.213Z,41.97
2023-02-11T11:18:23.466Z,39.23
2023-02-11T11:21:47.601Z,39.22
2023-02-11T11:25:02.297Z,39.58
2023-02-11T11:28:23.474Z,40.95
2023-02-11T11:31:37.312Z,38.43
2023-02-11T11:34:58.154Z,35.27
2023-02-11T11:38:10.261Z,39.67
2023-02-11T11:41:36.497Z,33.88
2023-02-11T11:44:57.463Z,43.08
2023-02-11T11:48:30.192Z,35.97
2023-02-11T11:51:42.309Z,34.43
2023-02-11T11:54:57.153Z,34.28
2023-02-11T11:58:17.192Z,35.72
2023-02-11T12:01:45.173Z,32.78
2023-02-11T12:05:16.176Z,29.60
2023-02-11T12:08:36.770Z,28.47
2023-02-11T12:12:10.174Z,32.00
2023-02-11T12:15:30.407Z,26.75
2023-02-11T12:19:20.228Z,35.72
2023-02-11T12:22:43.309Z,27.90
2023-02-11T12:26:18.330Z,26.93
2023-02-11T12:29:46.206Z,28.15
2023-02-11T12:33:15.220Z,29.95
2023-02-11T12:37:10.305Z,27.33
2023-02-11T12:40:33.805Z,26.77
2023-02-11T12:43:45.209Z,30.33
2023-02-11T12:47:09.847Z,27.57
2023-02-11T12:50:36.610Z,28.53
2023-02-11T12:54:07.235Z,27.85
2023-02-11T12:57:23.105Z,24.12
2023-02-11T13:01:00.822Z,26.98
2023-02-11T13:04:29.861Z,26.87
2023-02-11T13:07:51.205Z,26.73
2023-02-11T13:11:13.915Z,26.92
2023-02-11T13:14:36.230Z,27.17
2023-02-11T13:18:08.171Z,24.73
2023-02-11T13:21:54.270Z,24.97
2023-02-11T13:25:32.551Z,23.27
2023-02-11T13:29:06.680Z,25.85
2023-02-11T13:32:22.193Z,24.00
2023-02-11T13:35:44.429Z,22.73
2023-02-11T13:39:04.398Z,23.03
2023-02-11T13:42:16.404Z,24.60
2023-02-11T13:45:36.455Z,22.10
2023-02-11T13:48:48.721Z,28.70
2023-02-11T13:52:05.373Z,24.60
2023-02-11T13:55:29.312Z,25.10
2023-02-11T13:58:48.521Z,25.93
2023-02-11T14:02:34.285Z,23.33
2023-02-11T14:06:15.398Z,24.87
2023-02-11T14:09:45.185Z,22.58
2023-02-11T14:13:27.271Z,28.77
2023-02-11T14:17:02.374Z,24.47
2023-02-11T14:20:37.311Z,23.90
2023-02-11T14:23:47.190Z,22.67
2023-02-11T14:27:14.217Z,24.33
2023-02-11T14:30:39.414Z,30.70
2023-02-11T14:34:15.257Z,25.57
2023-02-11T14:38:03.406Z,26.37
2023-02-11T14:41:22.916Z,24.45
2023-02-11T14:44:40.205Z,27.02
2023-02-11T14:47:48.918Z,26.83
2023-02-11T14:51:15.486Z,25.30
2023-02-11T14:54:29.359Z,40.28
2023-02-11T14:57:44.284Z,26.95
2023-02-11T15:01:04.344Z,30.42
2023-02-11T15:04:43.413Z,28.40
2023-02-11T15:07:55.017Z,26.23
2023-02-11T15:11:07.423Z,28.55
2023-02-11T15:14:28.424Z,28.08
2023-02-11T15:17:38.471Z,26.58
2023-02-11T15:21:00.248Z,26.13
2023-02-11T15:24:35.381Z,27.10
2023-02-11T15:27:49.597Z,28.25
2023-02-11T15:31:10.322Z,29.63
2023-02-11T15:34:30.286Z,29.90
2023-02-11T15:37:50.564Z,28.40
2023-02-11T15:41:07.543Z,28.90
2023-02-11T15:44:35.266Z,28.98
2023-02-11T15:47:51.502Z,30.62
2023-02-11T15:54:57.937Z,29.17
2023-02-11T15:58:10.310Z,30.12
2023-02-11T16:01:18.896Z,31.25
2023-02-11T16:04:28.085Z,33.50
2023-02-11T16:07:49.891Z,28.30
2023-02-11T16:11:05.569Z,30.25
2023-02-11T16:14:34.838Z,28.33
2023-02-11T16:17:44.741Z,30.35
2023-02-11T16:20:54.856Z,33.53
2023-02-11T16:24:10.854Z,30.30
2023-02-11T16:27:32.866Z,27.20
2023-02-11T16:30:42.958Z,30.92
2023-02-11T16:33:58.861Z,30.35
2023-02-11T16:37:10.825Z,33.43
2023-02-11T16:40:19.897Z,37.33
2023-02-11T16:43:28.114Z,29.00
2023-02-11T16:46:37.982Z,31.95
2023-02-11T16:49:48.857Z,25.17
2023-02-11T16:52:58.989Z,26.33
2023-02-11T16:56:23.004Z,31.80
2023-02-11T16:59:25.632Z,31.80
2023-02-11T17:02:43.901Z,32.33
2023-02-11T17:05:55.588Z,27.67
2023-02-11T17:09:04.803Z,27.17
2023-02-11T17:12:19.891Z,31.20
2023-02-11T17:15:28.431Z,28.10
2023-02-11T17:18:42.864Z,25.27
2023-02-11T17:21:52.789Z,30.27
2023-02-11T17:25:01.884Z,30.67
2023-02-11T17:28:16.981Z,27.50
2023-02-11T17:31:19.509Z,26.08
2023-02-11T17:34:34.847Z,29.20
2023-02-11T17:37:43.672Z,29.12
2023-02-11T17:40:51.880Z,32.77
2023-02-11T17:44:07.906Z,29.43
2023-02-11T17:47:16.829Z,32.58
2023-02-11T17:50:28.880Z,26.15
2023-02-11T17:53:44.185Z,32.28
2023-02-11T17:56:59.925Z,29.83
2023-02-11T18:00:15.913Z,28.13
2023-02-11T18:03:18.085Z,29.67
2023-02-11T18:06:33.940Z,31.50
2023-02-11T18:09:38.506Z,29.77
2023-02-11T18:12:53.889Z,34.10
2023-02-11T18:16:07.899Z,26.40
2023-02-11T18:19:17.421Z,30.88
2023-02-11T18:22:25.912Z,32.60
2023-02-11T18:25:34.933Z,32.63
2023-02-11T18:28:46.061Z,34.83
2023-02-11T18:31:55.980Z,32.70
2023-02-11T18:35:04.917Z,28.90
2023-02-11T18:38:13.875Z,34.47
2023-02-11T18:41:22.877Z,29.83
2023-02-11T18:44:37.937Z,37.07
2023-02-11T18:47:46.762Z,41.10
2023-02-11T18:51:02.893Z,32.28
2023-02-11T18:54:18.909Z,30.30
2023-02-11T18:57:28.537Z,26.12
2023-02-11T19:00:46.923Z,28.57
2023-02-11T19:03:49.354Z,32.83
2023-02-11T19:07:03.984Z,31.80
2023-02-11T19:10:07.033Z,31.62
2023-02-11T19:13:21.890Z,32.30
2023-02-11T19:16:30.006Z,30.53
2023-02-11T19:19:44.908Z,31.77
2023-02-11T19:22:59.979Z,30.52
2023-02-11T19:26:08.967Z,33.28
2023-02-11T19:29:24.938Z,31.00
2023-02-11T19:32:37.953Z,31.97
2023-02-11T19:35:53.317Z,32.33
2023-02-11T19:39:10.905Z,34.95
2023-02-11T19:42:14.594Z,35.97
2023-02-11T19:45:28.918Z,25.37
2023-02-11T19:48:44.911Z,33.97
2023-02-11T19:51:47.294Z,30.70
2023-02-11T19:55:08.942Z,29.50
2023-02-11T19:58:11.068Z,31.02
2023-02-11T20:01:27.998Z,33.25
2023-02-11T20:04:43.906Z,29.60
2023-02-11T20:07:45.749Z,36.03
2023-02-11T20:11:00.942Z,28.40
2023-02-11T20:14:04.025Z,40.53
2023-02-11T20:17:18.957Z,26.02
2023-02-11T20:20:21.189Z,29.70
2023-02-11T20:23:37.015Z,27.93
2023-02-11T20:26:39.039Z,30.35
2023-02-11T20:29:54.941Z,23.33
2023-02-11T20:32:57.500Z,23.30
2023-02-11T20:36:17.981Z,26.43
2023-02-11T20:39:28.967Z,25.63
2023-02-11T20:42:38.038Z,22.70
2023-02-11T20:45:47.081Z,23.12
2023-02-11T20:48:56.979Z,30.37
2023-02-11T20:52:06.004Z,27.03
2023-02-11T20:55:28.271Z,27.77
2023-02-11T20:58:32.070Z,26.33
2023-02-11T21:01:50.999Z,26.20
2023-02-11T21:04:53.077Z,23.17
2023-02-11T21:08:07.989Z,24.03
2023-02-11T21:11:10.133Z,25.50
2023-02-11T21:14:27.005Z,26.30
2023-02-11T21:17:29.218Z,24.67
2023-02-11T21:20:44.000Z,28.42
2023-02-11T21:24:02.971Z,26.13
2023-02-11T21:27:11.881Z,24.90
2023-02-11T21:30:27.963Z,22.55
2023-02-11T21:33:36.900Z,28.60
2023-02-11T21:36:46.071Z,23.75
2023-02-11T21:40:01.093Z,28.43
2023-02-11T21:43:09.932Z,22.17
2023-02-11T21:46:21.143Z,23.05
2023-02-11T21:49:30.100Z,22.52
2023-02-11T21:52:38.969Z,27.00
2023-02-11T21:56:10.049Z,29.40
2023-02-11T21:59:12.945Z,22.80
2023-02-11T22:02:27.986Z,25.30
2023-02-11T22:05:29.788Z,23.50
2023-02-11T22:08:45.981Z,28.85
2023-02-11T22:11:55.045Z,21.80
2023-02-11T22:15:11.018Z,22.73
2023-02-11T22:18:13.236Z,23.80
2023-02-11T22:21:29.007Z,22.75
2023-02-11T22:24:37.015Z,26.27
2023-02-11T22:27:53.010Z,21.27
2023-02-11T22:31:01.707Z,26.90
2023-02-11T22:34:17.003Z,23.77
2023-02-11T22:37:18.853Z,25.73
2023-02-11T22:40:34.007Z,22.77
2023-02-11T22:43:36.921Z,23.13
2023-02-11T22:46:52.011Z,24.00
2023-02-11T22:49:53.933Z,22.98
2023-02-11T22:53:08.982Z,23.87
2023-02-11T22:56:17.761Z,24.02
2023-02-11T22:59:36.034Z,25.10
2023-02-11T23:02:51.114Z,24.27
2023-02-11T23:05:53.171Z,23.62
2023-02-11T23:09:14.020Z,23.87
2023-02-11T23:12:22.994Z,21.50
2023-02-11T23:15:31.959Z,25.57
2023-02-11T23:18:42.003Z,25.73
2023-02-11T23:21:51.616Z,22.85
2023-02-11T23:25:00.014Z,21.35
2023-02-11T23:28:15.048Z,24.52
2023-02-11T23:31:20.242Z,23.27
2023-02-11T23:34:35.050Z,21.13
2023-02-11T23:37:36.883Z,28.95
2023-02-11T23:40:53.050Z,24.10
2023-02-11T23:44:02.131Z,22.87
2023-02-11T23:47:17.041Z,22.07
2023-02-11T23:50:32.065Z,24.27
2023-02-11T23:53:33.984Z,23.75
2023-02-11T23:56:56.046Z,21.75
